Sitc Xiamen — 3ELU — position and weather

sailwx.info

Track history (hours):
 
Tides and Currents Weather Stations Pressure Air Temp Water Temp Dewpoint Dewpoint Depression Visibility Wind Speed Wind Dir Waves Ship Positions

Sitc Xiamen

Last reported at 2015-Mar-01 20:33 UTC. Time now 2015-Mar-01 20:58 UTC.
Position N 29°41' E 122°28'.

Length 145 m; draft 8.6 m.

Type: Ship (hazmat cat A). MMSI: 355090000.

Date/timePositionNaut miles runAvg speedWind from/ knotsBaromVisibWave heightAir tempDewpointWater temp
2015-Mar-01 20:33N 29°41' E 122°28'3 2.8
2015-Mar-01 19:33N 29°41' E 122°32'1312.9
2015-Mar-01 18:33N 29°52' E 122°40'43213.5
2015-Feb-28 10:31N 33°40' E 129°51'1313.5
2015-Feb-28 09:33N 33°46' E 130°05'1713.7
2015-Feb-28 08:20N 33°55' E 130°22'2413.0
2015-Feb-28 06:27N 34°01' E 130°50'12 0.3
2015-Feb-26 07:24N 34°00' E 130°36'1314.7
2015-Feb-26 06:33N 33°54' E 130°23'1414.1
2015-Feb-26 05:33N 33°41' E 130°16'7 6.4
2015-Feb-26 04:26N 33°39' E 130°24'0 0.0
2015-Feb-26 03:32N 33°39' E 130°24'0 0.0
2015-Feb-26 02:32N 33°39' E 130°24'0 0.0
2015-Feb-26 01:32N 33°39' E 130°24'0 0.0
2015-Feb-26 00:32N 33°39' E 130°24'0 0.0
2015-Feb-25 23:32N 33°39' E 130°24'6 6.5
2015-Feb-25 22:33N 33°39' E 130°17'0 0.1
2015-Feb-25 21:33N 33°39' E 130°17'0 0.0
2015-Feb-25 20:33N 33°39' E 130°17'0 0.0
2015-Feb-25 19:27N 33°39' E 130°17'0 0.1
2015-Feb-25 18:30N 33°39' E 130°17'0 0.1
2015-Feb-25 17:33N 33°39' E 130°17'0 0.0
2015-Feb-25 16:33N 33°39' E 130°17'0 0.0
2015-Feb-25 15:33N 33°39' E 130°17'0 0.1
2015-Feb-25 14:33N 33°39' E 130°17'0 0.1
2015-Feb-25 13:33N 33°39' E 130°17'0 0.1
2015-Feb-25 12:33N 33°39' E 130°17'0 0.1
2015-Feb-25 11:33N 33°39' E 130°17'0 0.0
2015-Feb-25 10:27N 33°39' E 130°17'0 0.1
2015-Feb-25 09:33N 33°39' E 130°17'0 0.0
2015-Feb-25 08:33N 33°39' E 130°17'0 0.0
2015-Feb-25 07:33N 33°39' E 130°17'0 0.1
2015-Feb-25 06:33N 33°39' E 130°17'0 0.0
2015-Feb-25 05:33N 33°39' E 130°17'0 0.1
2015-Feb-25 04:33N 33°39' E 130°17'0 0.1
2015-Feb-25 03:33N 33°39' E 130°17'0 0.0
2015-Feb-25 02:33N 33°39' E 130°17'0 0.1
2015-Feb-25 01:33N 33°39' E 130°17'0 0.1
2015-Feb-25 00:33N 33°39' E 130°17'0 0.1
2015-Feb-24 23:33N 33°39' E 130°17'0 0.1
2015-Feb-24 22:33N 33°39' E 130°17'0 0.0
2015-Feb-24 21:33N 33°39' E 130°17'0 0.1
2015-Feb-24 20:33N 33°39' E 130°17'0 0.1
2015-Feb-24 19:33N 33°39' E 130°17'0 0.1
2015-Feb-24 18:33N 33°39' E 130°17'0 0.0
2015-Feb-24 17:33N 33°39' E 130°17'0 0.0
2015-Feb-24 16:33N 33°39' E 130°17'0 0.0
2015-Feb-24 15:30N 33°39' E 130°17'0 0.0
2015-Feb-24 14:33N 33°39' E 130°17'0 0.0
2015-Feb-24 13:33N 33°39' E 130°17'0 0.1
2015-Feb-24 12:33N 33°39' E 130°17'0 0.0
2015-Feb-24 11:33N 33°39' E 130°17'0 0.0
2015-Feb-24 10:18N 33°39' E 130°17'0 0.0
2015-Feb-24 09:30N 33°39' E 130°17'0 0.2
2015-Feb-24 08:33N 33°39' E 130°17'9 9.2
2015-Feb-24 07:33N 33°46' E 130°10'  
Track history (hours):
 
Tides and Currents Weather Stations Pressure Air Temp Water Temp Dewpoint Dewpoint Depression Visibility Wind Speed Wind Dir Waves Ship Positions

Sitc Xiamen

Last reported at 2015-Mar-01 20:33 UTC. Time now 2015-Mar-01 20:58 UTC.
Position N 29°41' E 122°28'.

Length 145 m; draft 8.6 m.

Type: Ship (hazmat cat A). MMSI: 355090000.

Date/timePositionNaut miles runAvg speedWind from/ knotsBaromVisibWave heightAir tempDewpointWater temp
2015-Mar-01 20:33N 29°41' E 122°28'3 2.8
2015-Mar-01 19:33N 29°41' E 122°32'1312.9
2015-Mar-01 18:33N 29°52' E 122°40'43213.5
2015-Feb-28 10:31N 33°40' E 129°51'1313.5
2015-Feb-28 09:33N 33°46' E 130°05'1713.7
2015-Feb-28 08:20N 33°55' E 130°22'2413.0
2015-Feb-28 06:27N 34°01' E 130°50'12 0.3
2015-Feb-26 07:24N 34°00' E 130°36'1314.7
2015-Feb-26 06:33N 33°54' E 130°23'1414.1
2015-Feb-26 05:33N 33°41' E 130°16'7 6.4
2015-Feb-26 04:26N 33°39' E 130°24'0 0.0
2015-Feb-26 03:32N 33°39' E 130°24'0 0.0
2015-Feb-26 02:32N 33°39' E 130°24'0 0.0
2015-Feb-26 01:32N 33°39' E 130°24'0 0.0
2015-Feb-26 00:32N 33°39' E 130°24'0 0.0
2015-Feb-25 23:32N 33°39' E 130°24'6 6.5
2015-Feb-25 22:33N 33°39' E 130°17'0 0.1
2015-Feb-25 21:33N 33°39' E 130°17'0 0.0
2015-Feb-25 20:33N 33°39' E 130°17'0 0.0
2015-Feb-25 19:27N 33°39' E 130°17'0 0.1
2015-Feb-25 18:30N 33°39' E 130°17'0 0.1
2015-Feb-25 17:33N 33°39' E 130°17'0 0.0
2015-Feb-25 16:33N 33°39' E 130°17'0 0.0
2015-Feb-25 15:33N 33°39' E 130°17'0 0.1
2015-Feb-25 14:33N 33°39' E 130°17'0 0.1
2015-Feb-25 13:33N 33°39' E 130°17'0 0.1
2015-Feb-25 12:33N 33°39' E 130°17'0 0.1
2015-Feb-25 11:33N 33°39' E 130°17'0 0.0
2015-Feb-25 10:27N 33°39' E 130°17'0 0.1
2015-Feb-25 09:33N 33°39' E 130°17'0 0.0
2015-Feb-25 08:33N 33°39' E 130°17'0 0.0
2015-Feb-25 07:33N 33°39' E 130°17'0 0.1
2015-Feb-25 06:33N 33°39' E 130°17'0 0.0
2015-Feb-25 05:33N 33°39' E 130°17'0 0.1
2015-Feb-25 04:33N 33°39' E 130°17'0 0.1
2015-Feb-25 03:33N 33°39' E 130°17'0 0.0
2015-Feb-25 02:33N 33°39' E 130°17'0 0.1
2015-Feb-25 01:33N 33°39' E 130°17'0 0.1
2015-Feb-25 00:33N 33°39' E 130°17'0 0.1
2015-Feb-24 23:33N 33°39' E 130°17'0 0.1
2015-Feb-24 22:33N 33°39' E 130°17'0 0.0
2015-Feb-24 21:33N 33°39' E 130°17'0 0.1
2015-Feb-24 20:33N 33°39' E 130°17'0 0.1
2015-Feb-24 19:33N 33°39' E 130°17'0 0.1
2015-Feb-24 18:33N 33°39' E 130°17'0 0.0
2015-Feb-24 17:33N 33°39' E 130°17'0 0.0
2015-Feb-24 16:33N 33°39' E 130°17'0 0.0
2015-Feb-24 15:30N 33°39' E 130°17'0 0.0
2015-Feb-24 14:33N 33°39' E 130°17'0 0.0
2015-Feb-24 13:33N 33°39' E 130°17'0 0.1
2015-Feb-24 12:33N 33°39' E 130°17'0 0.0
2015-Feb-24 11:33N 33°39' E 130°17'0 0.0
2015-Feb-24 10:18N 33°39' E 130°17'0 0.0
2015-Feb-24 09:30N 33°39' E 130°17'0 0.2
2015-Feb-24 08:33N 33°39' E 130°17'9 9.2
2015-Feb-24 07:33N 33°46' E 130°10'  

Dump ship's entire track history